Monte — V2FS2 — position and weather

sailwx.info

Track history (hours):
 
Tides and Currents Weather Stations Pressure Air Temp Water Temp Dewpoint Dewpoint Depression Visibility Wind Speed Wind Dir Waves Ship Positions

Monte

Last reported at 2014-Aug-01 09:03 UTC. Time now 2014-Aug-01 10:00 UTC.
Position N 56°25' E 010°56'.

Length 104 m; draft 5.7 m.

Type: Cargo ship. MMSI: 305777000.

Date/timePositionNaut miles runAvg speedWind from/ knotsBaromVisibWave heightAir tempDewpointWater temp
2014-Aug-01 09:03N 56°25' E 010°56'0 0.0
2014-Aug-01 08:21N 56°25' E 010°56'0 0.0
2014-Aug-01 07:09N 56°25' E 010°56'0 0.0
2014-Aug-01 04:27N 56°25' E 010°56'0 0.0
2014-Jul-31 23:03N 56°25' E 010°56'35 2.5
2014-Jul-31 09:14N 56°19' E 011°59'7 9.7
2014-Jul-31 08:33N 56°16' E 012°09'9 9.6
2014-Jul-31 07:33N 56°11' E 012°23'9 8.9
2014-Jul-31 06:33N 56°05' E 012°36'8 8.2
2014-Jul-31 05:33N 55°58' E 012°42'9 8.7
2014-Jul-31 04:34N 55°49' E 012°43'9 9.4
2014-Jul-31 03:33N 55°40' E 012°42'8 8.1
2014-Jul-31 02:34N 55°32' E 012°43'10 9.8
2014-Jul-31 01:34N 55°22' E 012°41'8 8.3
2014-Jul-31 00:33N 55°16' E 012°52'10 9.6
2014-Jul-30 23:33N 55°15' E 013°09'1010.0
2014-Jul-30 22:33N 55°15' E 013°26'1510.1
2014-Jul-30 21:07N 55°14' E 013°52'610.5
2014-Jul-30 20:34N 55°14' E 014°02'10 9.9
2014-Jul-30 19:33N 55°16' E 014°19'1211.2
2014-Jul-30 18:29N 55°25' E 014°32'1010.7
2014-Jul-30 17:32N 55°31' E 014°47'2310.4
2014-Jul-30 15:17N 55°42' E 015°23'810.6
2014-Jul-30 14:32N 55°46' E 015°35'1110.8
2014-Jul-30 13:34N 55°51' E 015°51'1110.9
2014-Jul-30 12:33N 55°57' E 016°08'1111.0
2014-Jul-30 11:33N 56°02' E 016°25'5510.8
2014-Jul-30 06:28N 56°35' E 017°45'1010.9
2014-Jul-30 05:33N 56°41' E 017°60'1111.0
2014-Jul-30 04:33N 56°47' E 018°16'1110.7
2014-Jul-30 03:33N 56°55' E 018°30'1110.9
2014-Jul-30 02:33N 57°03' E 018°42'1110.8
2014-Jul-30 01:33N 57°12' E 018°53'1110.7
2014-Jul-30 00:33N 57°21' E 019°05'1110.7
2014-Jul-29 23:33N 57°29' E 019°16'1110.7
2014-Jul-29 22:33N 57°38' E 019°28'1110.6
2014-Jul-29 21:33N 57°46' E 019°40'1110.6
2014-Jul-29 20:33N 57°55' E 019°52'1010.3
2014-Jul-29 19:33N 58°03' E 020°04'4610.7
2014-Jul-29 15:15N 58°41' E 020°55'3210.3
2014-Jul-29 12:11N 59°06' E 021°32'610.0
2014-Jul-29 11:33N 59°11' E 021°40'1410.2
2014-Jul-29 10:10N 59°20' E 022°01'710.3
2014-Jul-29 09:32N 59°23' E 022°12'1210.1
2014-Jul-29 08:22N 59°29' E 022°32'910.6
2014-Jul-29 07:33N 59°32' E 022°48'1211.0
2014-Jul-29 06:30N 59°37' E 023°09'1010.9
2014-Jul-29 05:33N 59°40' E 023°28'1110.8
2014-Jul-29 04:33N 59°43' E 023°49'1410.7
2014-Jul-29 03:13N 59°46' E 024°16'1810.3
2014-Jul-29 01:29N 59°50' E 024°51'910.1
2014-Jul-29 00:33N 59°52' E 025°10'1010.5
2014-Jul-28 23:33N 59°54' E 025°30'1310.4
2014-Jul-28 22:22N 59°56' E 025°54'810.4
2014-Jul-28 21:33N 59°59' E 026°10'1110.6
2014-Jul-28 20:33N 60°01' E 026°31'1010.3
2014-Jul-28 19:33N 60°00' E 026°52'10 9.7
2014-Jul-28 18:33N 60°02' E 027°11'1010.3
2014-Jul-28 17:33N 60°07' E 027°29'1010.2
2014-Jul-28 16:33N 60°12' E 027°47'70 9.9
2014-Jul-28 09:32N 59°55' E 030°02'6 5.8
2014-Jul-28 08:33N 59°54' E 030°14'0 0.3
2014-Jul-28 07:31N 59°55' E 030°14'0 0.0
2014-Jul-28 06:33N 59°55' E 030°14'0 0.0
2014-Jul-28 05:33N 59°55' E 030°14'0 0.0
2014-Jul-28 04:33N 59°55' E 030°14'0 0.0
2014-Jul-28 03:33N 59°55' E 030°14'0 0.0
2014-Jul-28 02:33N 59°55' E 030°14'0 0.0
2014-Jul-28 01:33N 59°55' E 030°14'0 0.0
2014-Jul-28 00:06N 59°55' E 030°14'0 0.0
2014-Jul-27 23:30N 59°55' E 030°14'0 0.0
2014-Jul-27 22:26N 59°55' E 030°14'0 0.0
2014-Jul-27 21:28N 59°55' E 030°14'0 0.0
2014-Jul-27 20:25N 59°55' E 030°14'0 0.0
2014-Jul-27 18:28N 59°55' E 030°14'0 0.0
2014-Jul-27 17:33N 59°55' E 030°14'0 0.0
2014-Jul-27 16:33N 59°55' E 030°14'0 0.0
2014-Jul-27 15:33N 59°55' E 030°14'0 0.0
2014-Jul-27 14:33N 59°55' E 030°14'0 0.0
2014-Jul-27 13:26N 59°55' E 030°14'0 0.0
2014-Jul-27 12:32N 59°55' E 030°14'0 0.0
2014-Jul-27 11:13N 59°55' E 030°14'0 0.0
2014-Jul-27 10:26N 59°55' E 030°14'0 0.0
2014-Jul-27 09:16N 59°55' E 030°14'0 0.0
2014-Jul-27 08:29N 59°55' E 030°14'0 0.0
2014-Jul-27 07:33N 59°55' E 030°14'0 0.0
2014-Jul-27 06:30N 59°55' E 030°14'0 0.0
2014-Jul-27 05:32N 59°55' E 030°14'0 0.0
2014-Jul-27 04:33N 59°55' E 030°14'0 0.0
2014-Jul-27 03:33N 59°55' E 030°14'0 0.0
2014-Jul-27 02:33N 59°55' E 030°14'0 0.0
2014-Jul-27 01:33N 59°55' E 030°14'2 1.4
2014-Jul-27 00:28N 59°53' E 030°12'0 0.0
2014-Jul-25 11:21N 59°53' E 030°13'108 2.8
2014-Jul-23 20:32N 59°59' E 026°37'1010.3
2014-Jul-23 19:33N 59°56' E 026°18'14410.0
2014-Jul-23 05:04N 59°07' E 021°51'5 9.7
2014-Jul-23 04:33N 59°03' E 021°44'10 9.8
2014-Jul-23 03:33N 58°55' E 021°33'10 9.9
2014-Jul-23 02:33N 58°47' E 021°21'1010.1
2014-Jul-23 01:33N 58°39' E 021°09'1210.2
2014-Jul-23 00:25N 58°30' E 020°55'910.1
2014-Jul-22 23:31N 58°23' E 020°45'1010.1
2014-Jul-22 22:33N 58°15' E 020°34'1010.0
2014-Jul-22 21:34N 58°07' E 020°23'1010.3
2014-Jul-22 20:33N 57°59' E 020°10'1010.0
2014-Jul-22 19:33N 57°51' E 019°59'1010.1
2014-Jul-22 18:33N 57°43' E 019°47'1010.1
2014-Jul-22 17:33N 57°35' E 019°36'1010.1
2014-Jul-22 16:33N 57°27' E 019°24'1010.1
2014-Jul-22 15:33N 57°19' E 019°13'10 9.9
2014-Jul-22 14:33N 57°11' E 019°02'1010.1
2014-Jul-22 13:33N 57°03' E 018°50'10 9.9
2014-Jul-22 12:33N 56°55' E 018°39'10 9.8
2014-Jul-22 11:33N 56°48' E 018°27'10 9.9
2014-Jul-22 10:33N 56°41' E 018°14'  
Track history (hours):
 
Tides and Currents Weather Stations Pressure Air Temp Water Temp Dewpoint Dewpoint Depression Visibility Wind Speed Wind Dir Waves Ship Positions

Monte

Last reported at 2014-Aug-01 09:03 UTC. Time now 2014-Aug-01 10:00 UTC.
Position N 56°25' E 010°56'.

Length 104 m; draft 5.7 m.

Type: Cargo ship. MMSI: 305777000.

Date/timePositionNaut miles runAvg speedWind from/ knotsBaromVisibWave heightAir tempDewpointWater temp
2014-Aug-01 09:03N 56°25' E 010°56'0 0.0
2014-Aug-01 08:21N 56°25' E 010°56'0 0.0
2014-Aug-01 07:09N 56°25' E 010°56'0 0.0
2014-Aug-01 04:27N 56°25' E 010°56'0 0.0
2014-Jul-31 23:03N 56°25' E 010°56'35 2.5
2014-Jul-31 09:14N 56°19' E 011°59'7 9.7
2014-Jul-31 08:33N 56°16' E 012°09'9 9.6
2014-Jul-31 07:33N 56°11' E 012°23'9 8.9
2014-Jul-31 06:33N 56°05' E 012°36'8 8.2
2014-Jul-31 05:33N 55°58' E 012°42'9 8.7
2014-Jul-31 04:34N 55°49' E 012°43'9 9.4
2014-Jul-31 03:33N 55°40' E 012°42'8 8.1
2014-Jul-31 02:34N 55°32' E 012°43'10 9.8
2014-Jul-31 01:34N 55°22' E 012°41'8 8.3
2014-Jul-31 00:33N 55°16' E 012°52'10 9.6
2014-Jul-30 23:33N 55°15' E 013°09'1010.0
2014-Jul-30 22:33N 55°15' E 013°26'1510.1
2014-Jul-30 21:07N 55°14' E 013°52'610.5
2014-Jul-30 20:34N 55°14' E 014°02'10 9.9
2014-Jul-30 19:33N 55°16' E 014°19'1211.2
2014-Jul-30 18:29N 55°25' E 014°32'1010.7
2014-Jul-30 17:32N 55°31' E 014°47'2310.4
2014-Jul-30 15:17N 55°42' E 015°23'810.6
2014-Jul-30 14:32N 55°46' E 015°35'1110.8
2014-Jul-30 13:34N 55°51' E 015°51'1110.9
2014-Jul-30 12:33N 55°57' E 016°08'1111.0
2014-Jul-30 11:33N 56°02' E 016°25'5510.8
2014-Jul-30 06:28N 56°35' E 017°45'1010.9
2014-Jul-30 05:33N 56°41' E 017°60'1111.0
2014-Jul-30 04:33N 56°47' E 018°16'1110.7
2014-Jul-30 03:33N 56°55' E 018°30'1110.9
2014-Jul-30 02:33N 57°03' E 018°42'1110.8
2014-Jul-30 01:33N 57°12' E 018°53'1110.7
2014-Jul-30 00:33N 57°21' E 019°05'1110.7
2014-Jul-29 23:33N 57°29' E 019°16'1110.7
2014-Jul-29 22:33N 57°38' E 019°28'1110.6
2014-Jul-29 21:33N 57°46' E 019°40'1110.6
2014-Jul-29 20:33N 57°55' E 019°52'1010.3
2014-Jul-29 19:33N 58°03' E 020°04'4610.7
2014-Jul-29 15:15N 58°41' E 020°55'3210.3
2014-Jul-29 12:11N 59°06' E 021°32'610.0
2014-Jul-29 11:33N 59°11' E 021°40'1410.2
2014-Jul-29 10:10N 59°20' E 022°01'710.3
2014-Jul-29 09:32N 59°23' E 022°12'1210.1
2014-Jul-29 08:22N 59°29' E 022°32'910.6
2014-Jul-29 07:33N 59°32' E 022°48'1211.0
2014-Jul-29 06:30N 59°37' E 023°09'1010.9
2014-Jul-29 05:33N 59°40' E 023°28'1110.8
2014-Jul-29 04:33N 59°43' E 023°49'1410.7
2014-Jul-29 03:13N 59°46' E 024°16'1810.3
2014-Jul-29 01:29N 59°50' E 024°51'910.1
2014-Jul-29 00:33N 59°52' E 025°10'1010.5
2014-Jul-28 23:33N 59°54' E 025°30'1310.4
2014-Jul-28 22:22N 59°56' E 025°54'810.4
2014-Jul-28 21:33N 59°59' E 026°10'1110.6
2014-Jul-28 20:33N 60°01' E 026°31'1010.3
2014-Jul-28 19:33N 60°00' E 026°52'10 9.7
2014-Jul-28 18:33N 60°02' E 027°11'1010.3
2014-Jul-28 17:33N 60°07' E 027°29'1010.2
2014-Jul-28 16:33N 60°12' E 027°47'70 9.9
2014-Jul-28 09:32N 59°55' E 030°02'6 5.8
2014-Jul-28 08:33N 59°54' E 030°14'0 0.3
2014-Jul-28 07:31N 59°55' E 030°14'0 0.0
2014-Jul-28 06:33N 59°55' E 030°14'0 0.0
2014-Jul-28 05:33N 59°55' E 030°14'0 0.0
2014-Jul-28 04:33N 59°55' E 030°14'0 0.0
2014-Jul-28 03:33N 59°55' E 030°14'0 0.0
2014-Jul-28 02:33N 59°55' E 030°14'0 0.0
2014-Jul-28 01:33N 59°55' E 030°14'0 0.0
2014-Jul-28 00:06N 59°55' E 030°14'0 0.0
2014-Jul-27 23:30N 59°55' E 030°14'0 0.0
2014-Jul-27 22:26N 59°55' E 030°14'0 0.0
2014-Jul-27 21:28N 59°55' E 030°14'0 0.0
2014-Jul-27 20:25N 59°55' E 030°14'0 0.0
2014-Jul-27 18:28N 59°55' E 030°14'0 0.0
2014-Jul-27 17:33N 59°55' E 030°14'0 0.0
2014-Jul-27 16:33N 59°55' E 030°14'0 0.0
2014-Jul-27 15:33N 59°55' E 030°14'0 0.0
2014-Jul-27 14:33N 59°55' E 030°14'0 0.0
2014-Jul-27 13:26N 59°55' E 030°14'0 0.0
2014-Jul-27 12:32N 59°55' E 030°14'0 0.0
2014-Jul-27 11:13N 59°55' E 030°14'0 0.0
2014-Jul-27 10:26N 59°55' E 030°14'0 0.0
2014-Jul-27 09:16N 59°55' E 030°14'0 0.0
2014-Jul-27 08:29N 59°55' E 030°14'0 0.0
2014-Jul-27 07:33N 59°55' E 030°14'0 0.0
2014-Jul-27 06:30N 59°55' E 030°14'0 0.0
2014-Jul-27 05:32N 59°55' E 030°14'0 0.0
2014-Jul-27 04:33N 59°55' E 030°14'0 0.0
2014-Jul-27 03:33N 59°55' E 030°14'0 0.0
2014-Jul-27 02:33N 59°55' E 030°14'0 0.0
2014-Jul-27 01:33N 59°55' E 030°14'2 1.4
2014-Jul-27 00:28N 59°53' E 030°12'0 0.0
2014-Jul-25 11:21N 59°53' E 030°13'108 2.8
2014-Jul-23 20:32N 59°59' E 026°37'1010.3
2014-Jul-23 19:33N 59°56' E 026°18'14410.0
2014-Jul-23 05:04N 59°07' E 021°51'5 9.7
2014-Jul-23 04:33N 59°03' E 021°44'10 9.8
2014-Jul-23 03:33N 58°55' E 021°33'10 9.9
2014-Jul-23 02:33N 58°47' E 021°21'1010.1
2014-Jul-23 01:33N 58°39' E 021°09'1210.2
2014-Jul-23 00:25N 58°30' E 020°55'910.1
2014-Jul-22 23:31N 58°23' E 020°45'1010.1
2014-Jul-22 22:33N 58°15' E 020°34'1010.0
2014-Jul-22 21:34N 58°07' E 020°23'1010.3
2014-Jul-22 20:33N 57°59' E 020°10'1010.0
2014-Jul-22 19:33N 57°51' E 019°59'1010.1
2014-Jul-22 18:33N 57°43' E 019°47'1010.1
2014-Jul-22 17:33N 57°35' E 019°36'1010.1
2014-Jul-22 16:33N 57°27' E 019°24'1010.1
2014-Jul-22 15:33N 57°19' E 019°13'10 9.9
2014-Jul-22 14:33N 57°11' E 019°02'1010.1
2014-Jul-22 13:33N 57°03' E 018°50'10 9.9
2014-Jul-22 12:33N 56°55' E 018°39'10 9.8
2014-Jul-22 11:33N 56°48' E 018°27'10 9.9
2014-Jul-22 10:33N 56°41' E 018°14'  

Dump ship's entire track history